Los datos mostrados corresponden al resumen diario obtenido de los registros semihorarios entre las 0:00 y las 24:00 h, en horario solar.
| Estación | Fecha | V Km/h | DV | Vx Km/h | T ºC | Tn ºC | Tx ºC | H frío | HR % | Rad MJ/m2 día | H sol | P mm | ETo mm |
|---|---|---|---|---|---|---|---|---|---|---|---|---|---|
| Almoradí | 30/08/2026 | 2.83 | S | 12.88 | 25.02 | 19.07 | 31.41 | 0 | 69.82 | 23.5 | 11.27 | 0.21 | 4.55 |
| Elx | 30/08/2026 | 3.65 | N | 17.66 | 25.18 | 17.33 | 32.3 | 0 | 62.05 | 24.84 | 11.29 | 0 | 4.95 |
| Callosa d'En Sarrià | 30/08/2026 | 1.42 | N | 13.3 | 23.93 | 17.9 | 30.81 | 0 | 60.85 | 24.43 | 11.1 | 0 | 4.22 |
| Callosa d'En Sarrià (malla) | 30/08/2026 | 1.02 | NE | 10.44 | 24.6 | 18.31 | 32.25 | 0 | 46.72 | 20.17 | 10.31 | 0 | 3.55 |
| Catral | 30/08/2026 | 1.84 | S | 14.64 | 24.36 | 15.62 | 33.64 | 0 | 66.67 | 21.96 | 10.06 | 0 | 4.11 |
| Altea | 30/08/2026 | 4.3 | O | 17.57 | 24.93 | 19.89 | 31.36 | 0 | 61.37 | 24.37 | 11.5 | 0 | 5.06 |
| Planes | 30/08/2026 | 2.89 | E | 16.69 | 24.63 | 13.38 | 35.89 | 0 | 47.73 | 26.48 | 11.48 | 0 | 5.12 |
| Villena | 30/08/2026 | 4.95 | S | 19.58 | 22.97 | 12.02 | 32.83 | 0 | 52.4 | 25.49 | 11.24 | 0 | 5.39 |
| Camp de Mirra | 30/08/2026 | 4.7 | O | 28.01 | 23.43 | 14.04 | 32.4 | 0 | 46.53 | 25.45 | 11.7 | 0 | 5.34 |
| Agost | 30/08/2026 | 3.46 | NE | 13.41 | 23.91 | 15.66 | 31.98 | 0 | 46.11 | 23.96 | 11.47 | 0 | 4.76 |
| Orihuela - La Murada | 30/08/2026 | 3.66 | N | 15.13 | 24.88 | 16.12 | 33.9 | 0 | 56.76 | 24.19 | 11.6 | 0 | 5.01 |
| Villajoyosa | 30/08/2026 | 2.58 | SO | 12.21 | 24.48 | 19.17 | 31.28 | 0 | 56.31 | 24.73 | 11.5 | 0 | 4.62 |
| Ondara | 30/08/2026 | 3.19 | S | 14.78 | 25.06 | 16.13 | 34.04 | 0 | 59.17 | 24.55 | 11.55 | 0 | 4.88 |
| Dénia | 30/08/2026 | 3.43 | E | 20.15 | 23.99 | 14.34 | 31.58 | 0 | 61.26 | 23.1 | 11.35 | 0 | 4.52 |
| Pinoso | 30/08/2026 | 5.73 | SO | 23 | 23.78 | 16.17 | 32.03 | 0 | 37.39 | 25.52 | 11.67 | 0 | 5.75 |
| Monforte del Cid | 30/08/2026 | 3.79 | E | 20.57 | 23.52 | 13.98 | 32.43 | 0 | 53.04 | 24.9 | 11.61 | 0 | 4.97 |
| Crevillent | 30/08/2026 | 2.88 | E | 15.84 | 25.79 | 18.06 | 33.82 | 0 | 52.46 | 23.77 | 10.99 | 0 | 4.75 |
| Vall d'Uixó | 30/08/2026 | 3.25 | N | 12.1 | 25.07 | 18.28 | 32.32 | 0 | 58.58 | 24.3 | 11.12 | 0 | 4.78 |
| Vila-real EEA | 30/08/2026 | 6.08 | N | 21.43 | 26.3 | 20.5 | 31.61 | 0 | 49.95 | 23.13 | 11.3 | 0 | 5.53 |
| Onda | 30/08/2026 | 5.61 | NO | 19.68 | 25.04 | 20.55 | 30.89 | 0 | 57.38 | 24.81 | 11.56 | 0 | 5.34 |
| Vila-Real | 30/08/2026 | 5.31 | N | 20.89 | 25.41 | 21.4 | 30.24 | 0 | 61.47 | 23.64 | 11.49 | 0 | 5.07 |
| San Rafael del Río | 30/08/2026 | 4.45 | S | 17.36 | 23.64 | 17.61 | 30.25 | 0 | 70 | 22.82 | 11.5 | 0 | 4.6 |
| Castelló de la Plana | 30/08/2026 | 2.21 | SO | 11.15 | 24.23 | 16.48 | 31.83 | 0 | 64.9 | 23.55 | 11.62 | 0 | 4.32 |
| Ribera de Cabanes | 30/08/2026 | 4.13 | SO | 17.22 | 24.55 | 19.25 | 30.02 | 0 | 64.9 | 23.72 | 11.44 | 0 | 4.72 |
| Nules | 30/08/2026 | 4.02 | E | 17.29 | 23.73 | 14.79 | 31.03 | 0 | 68.17 | 23.11 | 11.61 | 0 | 4.6 |
| Segorbe | 30/08/2026 | 1.97 | SE | 12.7 | 22.77 | 12.01 | 33.16 | 0 | 55.8 | 23.82 | 11.36 | 0 | 4.25 |
| Pedralba | 30/08/2026 | 3.05 | E | 16.41 | 24.4 | 16.23 | 33.23 | 0 | 50.6 | 23.2 | 11.16 | 0 | 4.63 |
| Benavites | 30/08/2026 | 2.13 | E | 11.85 | 23.25 | 14.49 | 28.87 | 0 | 76.2 | 23.3 | 11.44 | 0 | 4.06 |
| Moncada | 30/08/2026 | 6.07 | N | 20.64 | 24.56 | 16.16 | 30.4 | 0 | 59.87 | 25.21 | 11.51 | 0.1 | 5.27 |
| Carcaixent | 30/08/2026 | 4.24 | N | 19.79 | 25.84 | 17.25 | 35.79 | 0 | 59.18 | 23.82 | 10.93 | 0 | 5.34 |
| Carlet | 30/08/2026 | 4.08 | N | 16.87 | 25.03 | 14.84 | 32.96 | 0 | 56.92 | 23.55 | 11.4 | 0 | 4.85 |
| Llutxent | 30/08/2026 | 4.78 | N | 23.39 | 25.39 | 16.99 | 34.75 | 0 | 61.21 | 23.6 | 11.58 | 0 | 5.34 |
| Requena | 30/08/2026 | 3.92 | N | 16.05 | 24.99 | 14.85 | 36.07 | 0 | 43.43 | 25.98 | 11.31 | 0 | 5.51 |
| Algimia de Alfara | 30/08/2026 | 2.92 | E | 17.54 | 23.94 | 15.64 | 31.49 | 0 | 59.3 | 25.21 | 11.7 | 0 | 4.67 |
| Valencia - UPV | 30/08/2026 | 4.56 | NE | 18.45 | 24.92 | 19.99 | 28.72 | 0 | 64.22 | 23.65 | 11.54 | 0 | 4.69 |
| Algemesí | 30/08/2026 | 3.62 | O | 14.75 | 24.46 | 17.18 | 31.77 | 0 | 70.7 | 22.49 | 11.44 | 0 | 4.48 |
| Picassent | 30/08/2026 | 2.76 | NE | 15.63 | 24.1 | 16.34 | 30.32 | 0 | 63.41 | 23.8 | 11.42 | 0 | 4.4 |
| Montesa | 30/08/2026 | 1.76 | E | 14.22 | 25.46 | 16.53 | 35.57 | 0 | 56.92 | 23.34 | 10.8 | 0 | 4.41 |
| Xàtiva | 30/08/2026 | 2.49 | NO | 13.86 | 25.08 | 15.02 | 35.75 | 0 | 63.6 | 24.22 | 11.59 | 0 | 4.73 |
| Llíria | 30/08/2026 | 2.81 | NE | 17.92 | 23.53 | 13.38 | 32.5 | 0 | 53.69 | 23.69 | 11.66 | 0 | 4.49 |
| Sagunt | 30/08/2026 | 4.32 | NE | 15.63 | 25.1 | 18.61 | 30.05 | 0 | 57.39 | 23.1 | 11.45 | 0 | 4.72 |
| Campo Arcís | 30/08/2026 | 4.01 | NE | 21.24 | 23.66 | 12.09 | 35.58 | 0 | 45.74 | 25.54 | 11.38 | 0 | 5.41 |
| Villalonga | 30/08/2026 | 2.48 | NO | 13.23 | 26.4 | 18.41 | 35.54 | 0 | 59.82 | 23.18 | 11.51 | 0 | 4.69 |
| Gandía | 30/08/2026 | 1.66 | NO | 12.74 | 25.38 | 16.27 | 34.69 | 0 | 63.02 | 23.38 | 11.42 | 0 | 4.34 |
| Bolbaite | 30/08/2026 | 3.34 | N | 16.97 | 24.26 | 15.02 | 33.25 | 0 | 57.62 | 22.58 | 11.51 | 0 | 4.6 |
| Bétera | 30/08/2026 | 4.98 | E | 20.5 | 23.67 | 16.02 | 30.73 | 0 | 59.84 | 24.66 | 11.66 | 0 | 5.06 |
| Chulilla | 30/08/2026 | 4.67 | E | 19.9 | 23.88 | 16.41 | 32.11 | 0 | 49.87 | 24.34 | 11.65 | 0 | 5.15 |
| Godelleta | 30/08/2026 | 3.08 | NO | 13.9 | 24.48 | 16.16 | 32.39 | 0 | 57.8 | 24.1 | 11.54 | 0 | 4.67 |
| Bèlgida | 30/08/2026 | 3.34 | E | 18.35 | 24.99 | 14.68 | 35.36 | 0 | 65.29 | 23.53 | 11.49 | 0 | 4.92 |
| Polinyà de Xúquer | 30/08/2026 | 3.65 | O | 20.64 | 24.44 | 17.73 | 31.21 | 0 | 71.3 | 24.19 | 11.38 | 0 | 4.67 |
| Benifaió | 30/08/2026 | 2.29 | NE | 15.42 | 24.65 | 14.84 | 31.93 | 0 | 67.61 | 24.29 | 11.56 | 0 | 4.44 |
| Cheste | 30/08/2026 | 1.54 | E | 13.19 | 23.24 | 13.1 | 33.36 | 0 | 55.73 | 24.53 | 11.51 | 0 | 4.21 |
| Tavernes de la Valldigna | 30/08/2026 | 4.48 | SE | 19.76 | 24.96 | 17.43 | 31.15 | 0 | 76.2 | 22.74 | 11.29 | 0 | 4.59 |
| Castelló | 30/08/2026 | 2.84 | SE | 15.84 | 25.15 | 16.04 | 34.25 | 0 | 68.18 | 17.51 | 8.61 | 0 | 3.86 |
© Copyright 2011, Instituto Valenciano de Investigaciones Agrarias.
Los datos meteorológicos ofrecidos es esta página son informativos, por lo que carecen de carácter oficial. Los datos son publicados automáticamente y, por lo tanto, pueden no estar sujetos a una completa validación.
|
Cargando ...espere por favor... |